Merced, CA

11:30 AM PDT on March 27, 2017 (GMT -0700)
Merced Municipal-Macready | | Change Station
Active Advisory: Wind Advisory

Elev 154 ft 37.28 °N, 120.51 °W | Updated 37 minutes ago

Clear
Clear
58 °F
Feels Like 58 °F
N
15
Wind Variable Wind from NW

Today
High -- | Low -- °F
--% Chance of Precip.
Yesterday
High -- | Low -- °F
Precip. -- in
Pressure 30.17 in
Visibility 10.0 miles
Clouds Clear
Dew Point 45 °F
Humidity 62%
Rainfall 0.00 in
Snow Depth Not available.
6:54 AM 7:20 PM
Waning Crescent, 0% visible
METAR KMCE 271753Z AUTO 31013KT 10SM CLR 14/07 A3017 RMK AO2 SLP217 T01440072 10144 20094 51007 TSNO
Pressure 30.17 in
Visibility 10.0 miles
Clouds Clear
Dew Point 45 °F
Humidity 62%
Rainfall 0.00 in
Snow Depth Not available.
6:54 AM 7:20 PM
Waning Crescent, 0% visible
METAR KMCE 271753Z AUTO 31013KT 10SM CLR 14/07 A3017 RMK AO2 SLP217 T01440072 10144 20094 51007 TSNO

Get Your Daily Forecast Email!

Thanks for signing up!

Be on the lookout for a verification email in your inbox.

You'll start receiving severe weather alerts in your inbox..

×

10-Day Weather Forecast

Almanac

Astronomy

Mar. 27, 2017 Rise Set
Actual Time
Civil Twilight
Nautical Twilight
Astronomical Twilight
Moon
Length of Visible Light
Length of Day
Tomorrow will be .
, % of the Moon is Illuminated

Today's Extremes

State Highs State Lows

Community

WunderPhotos

Upload Photos

1,962,540 photos uploaded!

WunderBlog® & News

Nearby

Air Quality

  Air Quality AQ Index Pollutant
Not available.

Snow Depth

Station Depth Elevation

Earthquake Activity

City Distance Mag. Time & Date
Minimum magnitude displayed is 2.5.

Earthquake Activity

City Distance Mag. Time & Date
Minimum magnitude displayed is 2.5.

Coastal Water Temperatures

Place Temperature

Stations

Nearby Weather Stations

Station Location Temp. Windchill Dew Point Humidity Wind Precip. Elev Updated Type
                   

Watches & Warnings

Wind Advisory
Issued: 3:48 AM PDT Mar. 27, 2017 – National Weather Service

... Wind Advisory in effect from 11 am this morning to 8 PM PDT
this evening...

The National Weather Service in Hanford has issued a Wind
Advisory, which is in effect from 11 am this morning to 8 PM PDT
this evening.

* Winds... northwest 20 to 25 mph with gusts up to 35 mph.

* Timing... this morning through 8 PM this evening. The strongest winds
will occur late this afternoon into the early evening hours.

* Impacts... gusty winds will blow around unsecured objects. Tree
limbs could be blown down and a few power outages may result.

Precautionary/preparedness actions...

A Wind Advisory means that winds of 35 mph are expected. Winds
this strong can make driving difficult, especially for high
profile vehicles. Use extra caution.